createdAt,value
2022-11-22T00:00:45.093Z,0.60
2022-11-22T00:03:49.880Z,0.70
2022-11-22T00:06:53.186Z,0.50
2022-11-22T00:09:56.424Z,0.00
2022-11-22T00:12:59.862Z,0.10
2022-11-22T00:16:04.809Z,0.10
2022-11-22T00:19:10.458Z,0.10
2022-11-22T00:22:13.691Z,1.00
2022-11-22T00:25:16.987Z,0.30
2022-11-22T00:28:20.230Z,0.20
2022-11-22T00:31:23.676Z,0.80
2022-11-22T00:34:28.233Z,0.20
2022-11-22T00:37:32.018Z,0.20
2022-11-22T00:40:35.455Z,0.40
2022-11-22T00:43:38.682Z,0.90
2022-11-22T00:46:41.903Z,0.30
2022-11-22T00:49:46.967Z,0.30
2022-11-22T00:52:50.471Z,0.30
2022-11-22T00:55:53.919Z,0.30
2022-11-22T00:58:57.283Z,1.10
2022-11-22T01:02:00.557Z,0.30
2022-11-22T01:05:05.825Z,0.30
2022-11-22T01:08:09.256Z,0.30
2022-11-22T01:11:12.877Z,0.30
2022-11-22T01:14:16.960Z,0.20
2022-11-22T01:17:20.254Z,0.30
2022-11-22T01:20:25.100Z,0.20
2022-11-22T01:23:28.850Z,0.20
2022-11-22T01:26:32.025Z,0.20
2022-11-22T01:29:35.250Z,0.80
2022-11-22T01:32:38.600Z,0.70
2022-11-22T01:35:43.481Z,0.30
2022-11-22T01:38:46.871Z,0.30
2022-11-22T01:41:50.103Z,0.40
2022-11-22T01:44:55.234Z,0.30
2022-11-22T01:47:59.315Z,0.90
2022-11-22T01:51:08.232Z,0.30
2022-11-22T01:54:15.274Z,1.10
2022-11-22T01:57:23.328Z,0.80
2022-11-22T02:00:49.457Z,0.90
2022-11-22T02:03:55.207Z,0.30
2022-11-22T02:07:05.520Z,0.30
2022-11-22T02:10:09.497Z,0.40
2022-11-22T02:13:14.461Z,0.30
2022-11-22T02:16:17.783Z,0.30
2022-11-22T02:19:27.963Z,0.40
2022-11-22T02:22:37.406Z,0.30
2022-11-22T02:25:56.889Z,0.30
2022-11-22T02:29:05.133Z,0.30
2022-11-22T02:32:08.277Z,0.60
2022-11-22T02:35:19.335Z,0.20
2022-11-22T02:38:25.816Z,0.10
2022-11-22T02:41:30.491Z,0.20
2022-11-22T02:44:33.836Z,0.10
2022-11-22T02:47:37.037Z,0.10
2022-11-22T02:50:40.505Z,0.10
2022-11-22T02:53:43.783Z,0.80
2022-11-22T02:56:48.464Z,0.20
2022-11-22T02:59:51.681Z,0.20
2022-11-22T03:02:55.006Z,0.50
2022-11-22T03:05:58.142Z,0.20
2022-11-22T03:09:01.309Z,0.20
2022-11-22T03:12:06.163Z,0.20
2022-11-22T03:15:10.135Z,0.20
2022-11-22T03:18:13.715Z,0.30
2022-11-22T03:21:16.871Z,0.30
2022-11-22T03:24:20.470Z,0.20
2022-11-22T03:27:25.007Z,0.30
2022-11-22T03:30:28.183Z,0.30
2022-11-22T03:33:31.427Z,0.30
2022-11-22T03:36:34.575Z,0.30
2022-11-22T03:39:37.766Z,0.40
2022-11-22T03:42:42.796Z,0.30
2022-11-22T03:45:46.774Z,0.30
2022-11-22T03:48:49.959Z,0.30
2022-11-22T03:51:53.095Z,0.30
2022-11-22T03:54:56.225Z,0.30
2022-11-22T03:58:00.878Z,0.40
2022-11-22T04:01:04.196Z,0.40
2022-11-22T04:04:07.358Z,0.40
2022-11-22T04:07:10.611Z,0.30
2022-11-22T04:10:16.484Z,0.40
2022-11-22T04:13:44.387Z,0.30
2022-11-22T04:16:46.586Z,0.40
2022-11-22T04:20:20.742Z,0.30
2022-11-22T04:23:32.349Z,0.30
2022-11-22T04:26:37.337Z,0.30
2022-11-22T04:29:42.029Z,0.40
2022-11-22T04:32:46.955Z,0.90
2022-11-22T04:35:50.937Z,0.90
2022-11-22T04:38:54.862Z,0.30
2022-11-22T04:42:12.642Z,0.30
2022-11-22T04:45:17.252Z,0.30
2022-11-22T04:48:21.418Z,0.30
2022-11-22T04:51:41.865Z,0.30
2022-11-22T04:54:44.971Z,0.30
2022-11-22T04:57:48.306Z,0.30
2022-11-22T05:00:53.050Z,0.40
2022-11-22T05:03:56.214Z,0.40
2022-11-22T05:06:59.403Z,0.30
2022-11-22T05:10:02.563Z,0.30
2022-11-22T05:13:05.727Z,0.40
2022-11-22T05:16:12.350Z,0.30
2022-11-22T05:19:15.653Z,0.30
2022-11-22T05:22:39.036Z,0.40
2022-11-22T05:25:42.025Z,0.40
2022-11-22T05:28:45.232Z,0.30
2022-11-22T05:31:51.437Z,0.30
2022-11-22T05:34:54.930Z,0.70
2022-11-22T05:37:58.171Z,0.20
2022-11-22T05:41:01.517Z,0.90
2022-11-22T05:44:04.914Z,0.70
2022-11-22T05:47:09.759Z,0.10
2022-11-22T05:50:13.634Z,0.60
2022-11-22T05:53:16.850Z,0.10
2022-11-22T05:56:22.691Z,0.70
2022-11-22T05:59:25.876Z,0.30
2022-11-22T06:02:32.440Z,0.20
2022-11-22T06:05:35.639Z,0.20
2022-11-22T06:08:42.113Z,0.20
2022-11-22T06:11:48.035Z,0.40
2022-11-22T06:14:51.609Z,0.20
2022-11-22T06:17:56.101Z,0.30
2022-11-22T06:21:00.830Z,0.40
2022-11-22T06:24:04.369Z,0.70
2022-11-22T06:27:07.701Z,0.20
2022-11-22T06:30:11.825Z,0.80
2022-11-22T06:33:17.430Z,0.20
2022-11-22T06:36:22.574Z,0.50
2022-11-22T06:39:25.820Z,0.20
2022-11-22T06:42:31.187Z,0.30
2022-11-22T06:45:34.856Z,0.30
2022-11-22T06:48:41.544Z,0.20
2022-11-22T06:51:44.773Z,0.10
2022-11-22T06:54:48.292Z,0.40
2022-11-22T06:57:52.213Z,0.00
2022-11-22T07:01:01.491Z,0.50
2022-11-22T07:04:07.556Z,0.10
2022-11-22T07:07:10.842Z,0.10
2022-11-22T07:10:14.164Z,0.00
2022-11-22T07:13:17.425Z,0.00
2022-11-22T07:16:22.343Z,0.30
2022-11-22T07:19:27.096Z,0.50
2022-11-22T07:22:30.436Z,0.10
2022-11-22T07:25:33.764Z,0.20
2022-11-22T07:28:37.838Z,0.20
2022-11-22T07:31:42.791Z,0.30
2022-11-22T07:34:47.547Z,0.80
2022-11-22T07:37:51.046Z,0.80
2022-11-22T07:40:54.435Z,0.10
2022-11-22T07:43:57.610Z,0.20
2022-11-22T07:47:00.972Z,0.30
2022-11-22T07:50:06.804Z,0.40
2022-11-22T07:53:11.006Z,0.30
2022-11-22T07:56:15.436Z,0.30
2022-11-22T07:59:18.898Z,0.40
2022-11-22T08:02:22.255Z,0.50
2022-11-22T08:05:27.105Z,0.40
2022-11-22T08:08:30.980Z,0.40
2022-11-22T08:11:34.224Z,0.40
2022-11-22T08:14:37.805Z,0.40
2022-11-22T08:17:41.877Z,0.40
2022-11-22T08:20:46.944Z,0.50
2022-11-22T08:23:50.469Z,0.60
2022-11-22T08:26:53.929Z,1.00
2022-11-22T08:29:57.155Z,0.60
2022-11-22T08:33:00.570Z,0.80
2022-11-22T08:36:06.490Z,0.90
2022-11-22T08:39:09.983Z,0.90
2022-11-22T08:42:13.438Z,0.90
2022-11-22T08:45:16.887Z,1.00
2022-11-22T08:48:22.581Z,1.10
2022-11-22T08:51:27.396Z,1.00
2022-11-22T08:54:34.956Z,1.20
2022-11-22T08:57:41.068Z,1.20
2022-11-22T09:00:44.597Z,1.20
2022-11-22T09:03:47.824Z,1.10
2022-11-22T09:10:16.074Z,1.20
2022-11-22T09:13:19.412Z,1.10
2022-11-22T09:16:22.621Z,1.20
2022-11-22T09:19:25.907Z,1.30
2022-11-22T09:22:30.657Z,1.30
2022-11-22T09:25:33.841Z,1.30
2022-11-22T09:28:37.866Z,1.10
2022-11-22T09:31:41.083Z,1.40
2022-11-22T09:34:44.261Z,1.70
2022-11-22T09:37:48.954Z,1.60
2022-11-22T09:40:52.123Z,1.60
2022-11-22T09:44:06.712Z,1.60
2022-11-22T09:47:20.574Z,1.70
2022-11-22T09:50:32.369Z,1.60
2022-11-22T09:53:44.127Z,1.50
2022-11-22T09:56:48.665Z,1.40
2022-11-22T09:59:56.098Z,1.50
2022-11-22T10:03:06.813Z,1.70
2022-11-22T10:06:17.130Z,1.70
2022-11-22T10:09:34.070Z,1.70
2022-11-22T10:12:46.042Z,1.60
2022-11-22T10:15:55.922Z,1.70
2022-11-22T10:19:07.307Z,1.70
2022-11-22T10:22:13.229Z,1.60
2022-11-22T10:25:21.048Z,1.60
2022-11-22T10:28:31.064Z,1.60
2022-11-22T10:31:42.416Z,1.60
2022-11-22T10:34:59.981Z,1.70
2022-11-22T10:38:16.757Z,1.80
2022-11-22T10:41:33.929Z,1.90
2022-11-22T10:44:48.643Z,1.90
2022-11-22T10:48:03.345Z,1.80
2022-11-22T10:51:15.926Z,1.80
2022-11-22T10:54:26.950Z,1.80
2022-11-22T10:57:38.628Z,1.90
2022-11-22T11:00:46.316Z,1.80
2022-11-22T11:03:52.317Z,1.80
2022-11-22T11:07:14.790Z,1.70
2022-11-22T11:10:30.857Z,1.90
2022-11-22T11:13:43.535Z,1.80
2022-11-22T11:16:47.507Z,1.80
2022-11-22T11:19:53.939Z,1.80
2022-11-22T11:26:24.785Z,1.80
2022-11-22T11:29:38.443Z,1.80
2022-11-22T11:32:53.708Z,1.80
2022-11-22T11:36:01.954Z,1.80
2022-11-22T11:39:05.312Z,1.90
2022-11-22T11:42:30.686Z,1.90
2022-11-22T11:45:35.262Z,1.90
2022-11-22T11:48:41.186Z,1.90
2022-11-22T11:51:46.554Z,2.00
2022-11-22T11:54:54.339Z,2.00
2022-11-22T11:57:57.641Z,1.90
2022-11-22T12:01:02.421Z,1.90
2022-11-22T12:04:07.176Z,1.90
2022-11-22T12:07:19.523Z,1.90
2022-11-22T12:10:32.338Z,1.90
2022-11-22T12:14:04.649Z,2.00
2022-11-22T12:17:13.794Z,2.10
2022-11-22T12:20:22.311Z,2.00
2022-11-22T12:23:31.065Z,2.10
2022-11-22T12:26:34.472Z,2.00
2022-11-22T12:29:41.045Z,2.00
2022-11-22T12:32:51.215Z,2.00
2022-11-22T12:35:56.471Z,2.00
2022-11-22T12:39:03.043Z,1.90
2022-11-22T12:42:13.027Z,2.00
2022-11-22T12:45:27.232Z,2.00
2022-11-22T12:48:37.929Z,2.00
2022-11-22T12:51:46.142Z,2.10
2022-11-22T12:55:01.962Z,2.10
2022-11-22T12:58:18.806Z,2.10
2022-11-22T13:01:27.318Z,2.10
2022-11-22T13:04:42.435Z,2.10
2022-11-22T13:07:53.371Z,2.10
2022-11-22T13:10:59.997Z,2.10
2022-11-22T13:14:08.958Z,2.20
2022-11-22T13:17:16.022Z,2.10
2022-11-22T13:20:24.889Z,2.10
2022-11-22T13:23:50.302Z,2.10
2022-11-22T13:27:05.758Z,2.20
2022-11-22T13:30:19.454Z,2.10
2022-11-22T13:33:27.017Z,2.10
2022-11-22T13:36:41.515Z,2.00
2022-11-22T13:39:47.343Z,2.00
2022-11-22T13:43:42.742Z,2.00
2022-11-22T13:46:57.743Z,2.00
2022-11-22T13:50:01.026Z,1.90
2022-11-22T13:53:24.148Z,1.90
2022-11-22T13:56:50.616Z,1.90
2022-11-22T14:00:33.851Z,1.90
2022-11-22T14:03:41.168Z,1.90
2022-11-22T14:06:48.801Z,1.90
2022-11-22T14:10:02.276Z,1.90
2022-11-22T14:13:28.535Z,1.80
2022-11-22T14:16:58.035Z,1.90
2022-11-22T14:20:27.022Z,1.80
2022-11-22T14:23:55.336Z,1.90
2022-11-22T14:27:29.161Z,1.80
2022-11-22T14:30:45.294Z,1.80
2022-11-22T14:34:21.877Z,1.70
2022-11-22T14:37:52.324Z,1.70
2022-11-22T14:41:34.623Z,1.70
2022-11-22T14:45:02.578Z,1.70
2022-11-22T14:48:20.816Z,1.60
2022-11-22T14:51:32.465Z,1.60
2022-11-22T14:54:55.350Z,1.60
2022-11-22T14:58:13.727Z,1.60
2022-11-22T15:01:56.688Z,1.60
2022-11-22T15:09:14.565Z,1.60
2022-11-22T15:09:42.197Z,1.60
2022-11-22T15:13:07.376Z,1.50
2022-11-22T15:58:14.161Z,1.50
2022-11-22T16:01:20.513Z,1.50
2022-11-22T16:04:27.695Z,1.50
2022-11-22T16:07:37.257Z,1.50
2022-11-22T16:10:44.904Z,1.50
2022-11-22T16:13:48.347Z,1.50
2022-11-22T16:16:51.630Z,1.50
2022-11-22T16:20:15.743Z,1.50
2022-11-22T16:23:26.973Z,1.60
2022-11-22T16:26:31.722Z,1.50
2022-11-22T16:29:37.133Z,1.50
2022-11-22T16:32:40.326Z,1.50
2022-11-22T16:35:43.602Z,1.50
2022-11-22T16:38:47.738Z,1.50
2022-11-22T16:41:52.449Z,1.50
2022-11-22T16:45:00.917Z,1.50
2022-11-22T16:48:31.452Z,1.40
2022-11-22T16:51:35.867Z,1.40
2022-11-22T16:54:39.168Z,1.40
2022-11-22T16:57:43.894Z,1.50
2022-11-22T17:00:48.735Z,1.50
2022-11-22T17:03:55.246Z,1.40
2022-11-22T17:06:58.520Z,1.40
2022-11-22T17:10:01.942Z,1.40
2022-11-22T17:13:06.815Z,1.40
2022-11-22T17:16:11.922Z,1.40
2022-11-22T17:19:45.395Z,1.40
2022-11-22T17:22:42.847Z,1.40
2022-11-22T17:25:46.108Z,1.40
2022-11-22T17:28:51.061Z,1.40
2022-11-22T17:31:54.885Z,1.40
2022-11-22T17:34:58.245Z,1.40
2022-11-22T17:38:01.788Z,1.40
2022-11-22T17:41:05.127Z,1.40
2022-11-22T17:44:15.914Z,1.40
2022-11-22T17:47:19.120Z,1.40
2022-11-22T17:50:22.847Z,1.40
2022-11-22T17:53:26.076Z,1.40
2022-11-22T17:56:30.533Z,1.40
2022-11-22T17:59:35.343Z,1.40
2022-11-22T18:02:38.860Z,1.30
2022-11-22T18:05:42.288Z,1.40
2022-11-22T18:08:47.401Z,1.40
2022-11-22T18:11:51.071Z,1.30
2022-11-22T18:14:56.279Z,1.40
2022-11-22T18:17:59.686Z,1.40
2022-11-22T18:21:21.572Z,1.40
2022-11-22T18:24:49.048Z,1.40
2022-11-22T18:27:57.376Z,1.50
2022-11-22T18:31:02.992Z,1.50
2022-11-22T18:34:06.688Z,1.50
2022-11-22T18:37:10.078Z,1.40
2022-11-22T18:40:14.933Z,1.40
2022-11-22T18:43:18.487Z,1.40
2022-11-22T18:46:23.541Z,1.50
2022-11-22T18:49:27.145Z,1.50
2022-11-22T18:52:34.315Z,1.40
2022-11-22T18:55:41.612Z,1.40
2022-11-22T18:58:49.221Z,1.40
2022-11-22T19:01:54.579Z,1.40
2022-11-22T19:04:58.807Z,1.40
2022-11-22T19:08:08.981Z,1.30
2022-11-22T19:11:12.660Z,1.30
2022-11-22T19:14:16.079Z,1.40
2022-11-22T19:17:22.144Z,1.40
2022-11-22T19:20:53.641Z,1.40
2022-11-22T19:23:49.907Z,1.40
2022-11-22T19:26:53.608Z,1.40
2022-11-22T19:29:57.082Z,1.40
2022-11-22T19:33:02.204Z,1.40
2022-11-22T19:36:08.101Z,1.50
2022-11-22T19:39:13.765Z,1.50
2022-11-22T19:42:17.794Z,1.50
2022-11-22T19:45:21.569Z,1.50
2022-11-22T19:48:26.451Z,1.50
2022-11-22T19:51:31.890Z,1.50
2022-11-22T19:54:35.983Z,1.50
2022-11-22T19:57:40.271Z,1.50
2022-11-22T20:00:44.625Z,1.50
2022-11-22T20:03:54.321Z,1.50
2022-11-22T20:07:00.023Z,1.50
2022-11-22T20:10:04.156Z,1.50
2022-11-22T20:13:10.562Z,1.50
2022-11-22T20:16:20.296Z,1.50
2022-11-22T20:19:33.859Z,1.40
2022-11-22T20:22:43.463Z,1.40
2022-11-22T20:25:49.551Z,1.30
2022-11-22T20:29:01.617Z,1.30
2022-11-22T20:32:06.348Z,1.40
2022-11-22T20:35:12.940Z,1.40
2022-11-22T20:38:16.537Z,1.40
2022-11-22T20:41:21.165Z,1.30
2022-11-22T20:44:25.810Z,1.30
2022-11-22T20:47:29.660Z,1.20
2022-11-22T20:50:34.642Z,1.30
2022-11-22T20:53:38.885Z,1.40
2022-11-22T20:56:48.221Z,1.30
2022-11-22T20:59:55.573Z,1.30
2022-11-22T21:02:59.041Z,1.30
2022-11-22T21:06:04.878Z,1.20
2022-11-22T21:09:08.350Z,1.20
2022-11-22T21:12:11.639Z,1.20
2022-11-22T21:15:15.275Z,1.20
2022-11-22T21:18:26.657Z,1.30
2022-11-22T21:21:32.802Z,1.20
2022-11-22T21:24:37.580Z,1.20
2022-11-22T21:27:40.896Z,1.10
2022-11-22T21:30:44.333Z,1.10
2022-11-22T21:33:48.380Z,1.10
2022-11-22T21:36:54.073Z,1.10
2022-11-22T21:39:57.307Z,1.10
2022-11-22T21:43:00.536Z,1.10
2022-11-22T21:46:03.770Z,1.10
2022-11-22T21:49:08.008Z,1.10
2022-11-22T21:52:12.668Z,1.00
2022-11-22T21:55:16.513Z,1.00
2022-11-22T21:58:21.330Z,1.00
2022-11-22T22:01:25.077Z,1.00
2022-11-22T22:04:28.594Z,1.00
2022-11-22T22:11:00.935Z,1.00
2022-11-22T22:14:04.311Z,1.00
2022-11-22T22:17:07.515Z,1.00
2022-11-22T22:20:11.124Z,1.00
2022-11-22T22:23:16.243Z,1.00
2022-11-22T22:26:19.952Z,1.00
2022-11-22T22:29:23.328Z,1.00
2022-11-22T22:32:26.843Z,0.90
2022-11-22T22:35:30.071Z,0.90
2022-11-22T22:38:35.210Z,0.90
2022-11-22T22:41:38.442Z,1.00
2022-11-22T22:44:41.622Z,0.90
2022-11-22T22:47:45.118Z,0.90
2022-11-22T22:50:48.407Z,0.90
2022-11-22T22:53:53.392Z,0.90
2022-11-22T22:56:56.749Z,0.90
2022-11-22T23:00:00.080Z,0.90
2022-11-22T23:03:03.348Z,0.90
2022-11-22T23:06:08.573Z,0.90
2022-11-22T23:09:15.582Z,0.90
2022-11-22T23:12:19.083Z,0.90
2022-11-22T23:15:43.788Z,1.00
2022-11-22T23:18:46.645Z,1.00
2022-11-22T23:21:50.266Z,1.00
2022-11-22T23:24:55.023Z,0.90
2022-11-22T23:27:59.629Z,0.90
2022-11-22T23:31:07.400Z,0.90
2022-11-22T23:34:12.512Z,0.90
2022-11-22T23:37:16.030Z,0.90
2022-11-22T23:40:20.685Z,0.90
2022-11-22T23:43:23.972Z,0.90
2022-11-22T23:46:29.008Z,0.90
2022-11-22T23:49:32.537Z,1.00
2022-11-22T23:52:35.868Z,0.90
2022-11-22T23:55:40.575Z,0.90
2022-11-22T23:58:43.959Z,0.90
